sensor_id;sensor_type;location;lat;lon;timestamp;temperature;humidity
59469;DHT22;45277;52.768;18.262;2022-08-03T00:00:57;15.00;99.90
59469;DHT22;45277;52.768;18.262;2022-08-03T00:02:28;14.90;99.90
59469;DHT22;45277;52.768;18.262;2022-08-03T00:04:00;14.80;99.90
59469;DHT22;45277;52.768;18.262;2022-08-03T00:05:32;14.80;99.90
59469;DHT22;45277;52.768;18.262;2022-08-03T00:07:04;14.70;99.90
59469;DHT22;45277;52.768;18.262;2022-08-03T00:08:37;14.70;99.90
59469;DHT22;45277;52.768;18.262;2022-08-03T00:10:09;14.60;99.90
59469;DHT22;45277;52.768;18.262;2022-08-03T00:11:40;14.60;99.90
59469;DHT22;45277;52.768;18.262;2022-08-03T00:13:12;14.60;99.90
59469;DHT22;45277;52.768;18.262;2022-08-03T00:14:43;14.50;99.90
59469;DHT22;45277;52.768;18.262;2022-08-03T00:16:16;14.50;99.90
59469;DHT22;45277;52.768;18.262;2022-08-03T00:17:48;14.50;99.90
59469;DHT22;45277;52.768;18.262;2022-08-03T00:19:20;14.50;99.90
59469;DHT22;45277;52.768;18.262;2022-08-03T00:20:52;14.50;99.90
59469;DHT22;45277;52.768;18.262;2022-08-03T00:22:23;14.50;99.90
59469;DHT22;45277;52.768;18.262;2022-08-03T00:23:55;14.60;99.90
59469;DHT22;45277;52.768;18.262;2022-08-03T00:25:27;14.60;99.90
59469;DHT22;45277;52.768;18.262;2022-08-03T00:26:58;14.60;99.90
59469;DHT22;45277;52.768;18.262;2022-08-03T00:28:30;14.60;99.90
59469;DHT22;45277;52.768;18.262;2022-08-03T00:30:04;14.60;99.90
59469;DHT22;45277;52.768;18.262;2022-08-03T00:31:36;14.60;99.90
59469;DHT22;45277;52.768;18.262;2022-08-03T00:33:10;14.60;99.90
59469;DHT22;45277;52.768;18.262;2022-08-03T00:34:41;14.60;99.90
59469;DHT22;45277;52.768;18.262;2022-08-03T00:36:13;14.60;99.90
59469;DHT22;45277;52.768;18.262;2022-08-03T00:37:44;14.60;99.90
59469;DHT22;45277;52.768;18.262;2022-08-03T00:39:15;14.70;99.90
59469;DHT22;45277;52.768;18.262;2022-08-03T00:40:48;14.70;99.90
59469;DHT22;45277;52.768;18.262;2022-08-03T00:42:20;14.70;99.90
59469;DHT22;45277;52.768;18.262;2022-08-03T00:43:54;14.80;99.90
59469;DHT22;45277;52.768;18.262;2022-08-03T00:45:29;14.80;99.90
59469;DHT22;45277;52.768;18.262;2022-08-03T00:47:01;14.80;99.90
59469;DHT22;45277;52.768;18.262;2022-08-03T00:48:32;14.80;99.90
59469;DHT22;45277;52.768;18.262;2022-08-03T00:50:04;14.80;99.90
59469;DHT22;45277;52.768;18.262;2022-08-03T00:51:36;14.80;99.90
59469;DHT22;45277;52.768;18.262;2022-08-03T00:53:10;14.80;99.90
59469;DHT22;45277;52.768;18.262;2022-08-03T00:54:44;14.90;99.90
59469;DHT22;45277;52.768;18.262;2022-08-03T00:56:17;14.90;99.90
59469;DHT22;45277;52.768;18.262;2022-08-03T00:57:49;15.00;99.90
59469;DHT22;45277;52.768;18.262;2022-08-03T00:59:23;15.00;99.90
59469;DHT22;45277;52.768;18.262;2022-08-03T01:00:54;15.00;99.90
59469;DHT22;45277;52.768;18.262;2022-08-03T01:02:29;15.00;99.90
59469;DHT22;45277;52.768;18.262;2022-08-03T01:04:01;15.00;99.90
59469;DHT22;45277;52.768;18.262;2022-08-03T01:05:54;15.00;99.90
59469;DHT22;45277;52.768;18.262;2022-08-03T01:07:45;15.00;99.90
59469;DHT22;45277;52.768;18.262;2022-08-03T01:09:50;15.00;99.90
59469;DHT22;45277;52.768;18.262;2022-08-03T01:11:39;15.10;99.90
59469;DHT22;45277;52.768;18.262;2022-08-03T01:13:51;15.10;99.90
59469;DHT22;45277;52.768;18.262;2022-08-03T01:15:39;15.20;99.90
59469;DHT22;45277;52.768;18.262;2022-08-03T01:17:27;15.20;99.90
59469;DHT22;45277;52.768;18.262;2022-08-03T01:20:54;15.20;99.90
59469;DHT22;45277;52.768;18.262;2022-08-03T01:22:59;15.20;99.90
59469;DHT22;45277;52.768;18.262;2022-08-03T01:24:58;15.20;99.90
59469;DHT22;45277;52.768;18.262;2022-08-03T01:30:09;15.30;99.90
59469;DHT22;45277;52.768;18.262;2022-08-03T01:31:58;15.30;99.90
59469;DHT22;45277;52.768;18.262;2022-08-03T01:33:46;15.30;99.90
59469;DHT22;45277;52.768;18.262;2022-08-03T01:35:38;15.30;99.90
59469;DHT22;45277;52.768;18.262;2022-08-03T01:37:26;15.30;99.90
59469;DHT22;45277;52.768;18.262;2022-08-03T01:39:01;15.30;99.90
59469;DHT22;45277;52.768;18.262;2022-08-03T01:40:36;15.30;99.90
59469;DHT22;45277;52.768;18.262;2022-08-03T01:42:11;15.30;99.90
59469;DHT22;45277;52.768;18.262;2022-08-03T01:43:47;15.30;99.90
59469;DHT22;45277;52.768;18.262;2022-08-03T01:45:21;15.40;99.90
59469;DHT22;45277;52.768;18.262;2022-08-03T01:46:58;15.40;99.90
59469;DHT22;45277;52.768;18.262;2022-08-03T01:48:31;15.40;99.90
59469;DHT22;45277;52.768;18.262;2022-08-03T01:50:04;15.40;99.90
59469;DHT22;45277;52.768;18.262;2022-08-03T01:51:41;15.30;99.90
59469;DHT22;45277;52.768;18.262;2022-08-03T01:53:14;15.30;99.90
59469;DHT22;45277;52.768;18.262;2022-08-03T01:54:53;15.30;99.90
59469;DHT22;45277;52.768;18.262;2022-08-03T01:56:27;15.30;99.90
59469;DHT22;45277;52.768;18.262;2022-08-03T01:58:02;15.20;99.90
59469;DHT22;45277;52.768;18.262;2022-08-03T01:59:35;15.20;99.90
59469;DHT22;45277;52.768;18.262;2022-08-03T02:01:15;15.20;99.90
59469;DHT22;45277;52.768;18.262;2022-08-03T02:02:49;15.20;99.90
59469;DHT22;45277;52.768;18.262;2022-08-03T02:04:23;15.20;99.90
59469;DHT22;45277;52.768;18.262;2022-08-03T02:06:00;15.20;99.90
59469;DHT22;45277;52.768;18.262;2022-08-03T02:07:34;15.30;99.90
59469;DHT22;45277;52.768;18.262;2022-08-03T02:09:08;15.30;99.90
59469;DHT22;45277;52.768;18.262;2022-08-03T02:10:42;15.30;99.90
59469;DHT22;45277;52.768;18.262;2022-08-03T02:12:17;15.40;99.90
59469;DHT22;45277;52.768;18.262;2022-08-03T02:13:50;15.30;99.90
59469;DHT22;45277;52.768;18.262;2022-08-03T02:15:23;15.30;99.90
59469;DHT22;45277;52.768;18.262;2022-08-03T02:17:02;15.40;99.90
59469;DHT22;45277;52.768;18.262;2022-08-03T02:18:34;15.30;99.90
59469;DHT22;45277;52.768;18.262;2022-08-03T02:20:13;15.30;99.90
59469;DHT22;45277;52.768;18.262;2022-08-03T02:21:45;15.40;99.90
59469;DHT22;45277;52.768;18.262;2022-08-03T02:23:18;15.30;99.90
59469;DHT22;45277;52.768;18.262;2022-08-03T02:24:52;15.30;99.90
59469;DHT22;45277;52.768;18.262;2022-08-03T02:26:28;15.40;99.90
59469;DHT22;45277;52.768;18.262;2022-08-03T02:28:09;15.30;99.90
59469;DHT22;45277;52.768;18.262;2022-08-03T02:29:47;15.40;99.90
59469;DHT22;45277;52.768;18.262;2022-08-03T02:31:26;15.40;99.90
59469;DHT22;45277;52.768;18.262;2022-08-03T02:33:02;15.40;99.90
59469;DHT22;45277;52.768;18.262;2022-08-03T02:34:36;15.40;99.90
59469;DHT22;45277;52.768;18.262;2022-08-03T02:36:11;15.40;99.90
59469;DHT22;45277;52.768;18.262;2022-08-03T02:37:49;15.40;99.90
59469;DHT22;45277;52.768;18.262;2022-08-03T02:39:23;15.30;99.90
59469;DHT22;45277;52.768;18.262;2022-08-03T02:40:58;15.30;99.90
59469;DHT22;45277;52.768;18.262;2022-08-03T02:42:32;15.40;99.90
59469;DHT22;45277;52.768;18.262;2022-08-03T02:44:10;15.40;99.90
59469;DHT22;45277;52.768;18.262;2022-08-03T02:45:45;15.30;99.90
59469;DHT22;45277;52.768;18.262;2022-08-03T02:47:20;15.30;99.90
59469;DHT22;45277;52.768;18.262;2022-08-03T02:48:53;15.30;99.90
59469;DHT22;45277;52.768;18.262;2022-08-03T02:50:27;15.30;99.90
59469;DHT22;45277;52.768;18.262;2022-08-03T02:52:02;15.30;99.90
59469;DHT22;45277;52.768;18.262;2022-08-03T02:53:36;15.30;99.90
59469;DHT22;45277;52.768;18.262;2022-08-03T02:55:15;15.30;99.90
59469;DHT22;45277;52.768;18.262;2022-08-03T02:56:49;15.30;99.90
59469;DHT22;45277;52.768;18.262;2022-08-03T02:58:23;15.30;99.90
59469;DHT22;45277;52.768;18.262;2022-08-03T02:59:57;15.30;99.90
59469;DHT22;45277;52.768;18.262;2022-08-03T03:01:31;15.30;99.90
59469;DHT22;45277;52.768;18.262;2022-08-03T03:03:03;15.30;99.90
59469;DHT22;45277;52.768;18.262;2022-08-03T03:04:38;15.30;99.90
59469;DHT22;45277;52.768;18.262;2022-08-03T03:06:18;15.40;99.90
59469;DHT22;45277;52.768;18.262;2022-08-03T03:07:50;15.40;99.90
59469;DHT22;45277;52.768;18.262;2022-08-03T03:09:24;15.50;99.90
59469;DHT22;45277;52.768;18.262;2022-08-03T03:10:59;15.50;99.90
59469;DHT22;45277;52.768;18.262;2022-08-03T03:12:35;15.50;99.90
59469;DHT22;45277;52.768;18.262;2022-08-03T03:14:08;15.60;99.90
59469;DHT22;45277;52.768;18.262;2022-08-03T03:15:43;15.60;99.90
59469;DHT22;45277;52.768;18.262;2022-08-03T03:17:16;15.70;99.90
59469;DHT22;45277;52.768;18.262;2022-08-03T03:18:53;15.70;99.90
59469;DHT22;45277;52.768;18.262;2022-08-03T03:20:27;15.70;99.90
59469;DHT22;45277;52.768;18.262;2022-08-03T03:22:01;15.80;99.90
59469;DHT22;45277;52.768;18.262;2022-08-03T03:23:36;15.80;99.90
59469;DHT22;45277;52.768;18.262;2022-08-03T03:25:11;15.80;99.90
59469;DHT22;45277;52.768;18.262;2022-08-03T03:26:43;15.80;99.90
59469;DHT22;45277;52.768;18.262;2022-08-03T03:28:15;15.80;99.90
59469;DHT22;45277;52.768;18.262;2022-08-03T03:29:48;15.80;99.90
59469;DHT22;45277;52.768;18.262;2022-08-03T03:31:21;15.90;99.90
59469;DHT22;45277;52.768;18.262;2022-08-03T03:32:53;15.90;99.90
59469;DHT22;45277;52.768;18.262;2022-08-03T03:34:24;15.90;99.90
59469;DHT22;45277;52.768;18.262;2022-08-03T03:35:58;16.00;99.90
59469;DHT22;45277;52.768;18.262;2022-08-03T03:37:30;16.00;99.90
59469;DHT22;45277;52.768;18.262;2022-08-03T03:39:02;16.00;99.90
59469;DHT22;45277;52.768;18.262;2022-08-03T03:40:43;16.00;99.90
59469;DHT22;45277;52.768;18.262;2022-08-03T03:42:14;16.00;99.90
59469;DHT22;45277;52.768;18.262;2022-08-03T03:43:49;16.00;99.90
59469;DHT22;45277;52.768;18.262;2022-08-03T03:45:23;16.10;99.90
59469;DHT22;45277;52.768;18.262;2022-08-03T03:46:56;16.10;99.90
59469;DHT22;45277;52.768;18.262;2022-08-03T03:48:28;16.10;99.90
59469;DHT22;45277;52.768;18.262;2022-08-03T03:50:01;16.10;99.90
59469;DHT22;45277;52.768;18.262;2022-08-03T03:51:33;16.20;99.90
59469;DHT22;45277;52.768;18.262;2022-08-03T03:53:09;16.20;99.90
59469;DHT22;45277;52.768;18.262;2022-08-03T03:54:43;16.20;99.90
59469;DHT22;45277;52.768;18.262;2022-08-03T03:56:17;16.20;99.90
59469;DHT22;45277;52.768;18.262;2022-08-03T03:57:48;16.30;99.90
59469;DHT22;45277;52.768;18.262;2022-08-03T03:59:20;16.30;99.90
59469;DHT22;45277;52.768;18.262;2022-08-03T04:00:52;16.30;99.90
59469;DHT22;45277;52.768;18.262;2022-08-03T04:02:24;16.40;99.90
59469;DHT22;45277;52.768;18.262;2022-08-03T04:03:55;16.50;99.90
59469;DHT22;45277;52.768;18.262;2022-08-03T04:05:28;16.50;99.90
59469;DHT22;45277;52.768;18.262;2022-08-03T04:07:18;16.60;99.90
59469;DHT22;45277;52.768;18.262;2022-08-03T04:09:10;16.60;99.90
59469;DHT22;45277;52.768;18.262;2022-08-03T04:11:26;16.70;99.90
59469;DHT22;45277;52.768;18.262;2022-08-03T04:13:01;16.80;99.90
59469;DHT22;45277;52.768;18.262;2022-08-03T04:14:35;16.70;99.90
59469;DHT22;45277;52.768;18.262;2022-08-03T04:16:15;16.80;99.90
59469;DHT22;45277;52.768;18.262;2022-08-03T04:17:56;16.70;99.90
59469;DHT22;45277;52.768;18.262;2022-08-03T04:21:09;16.70;99.90
59469;DHT22;45277;52.768;18.262;2022-08-03T04:22:41;16.70;99.90
59469;DHT22;45277;52.768;18.262;2022-08-03T04:24:14;16.70;99.90
59469;DHT22;45277;52.768;18.262;2022-08-03T04:25:48;16.80;99.90
59469;DHT22;45277;52.768;18.262;2022-08-03T04:27:24;16.70;99.90
59469;DHT22;45277;52.768;18.262;2022-08-03T04:28:57;16.80;99.90
59469;DHT22;45277;52.768;18.262;2022-08-03T04:30:32;16.80;99.90
59469;DHT22;45277;52.768;18.262;2022-08-03T04:32:09;16.80;99.90
59469;DHT22;45277;52.768;18.262;2022-08-03T04:33:43;16.80;99.90
59469;DHT22;45277;52.768;18.262;2022-08-03T04:35:17;16.80;99.90
59469;DHT22;45277;52.768;18.262;2022-08-03T04:36:52;16.90;99.90
59469;DHT22;45277;52.768;18.262;2022-08-03T04:38:43;16.90;99.90
59469;DHT22;45277;52.768;18.262;2022-08-03T04:40:29;17.00;99.90
59469;DHT22;45277;52.768;18.262;2022-08-03T04:42:05;17.10;99.90
59469;DHT22;45277;52.768;18.262;2022-08-03T04:43:37;17.20;99.90
59469;DHT22;45277;52.768;18.262;2022-08-03T04:45:12;17.30;99.90
59469;DHT22;45277;52.768;18.262;2022-08-03T04:46:45;17.40;99.90
59469;DHT22;45277;52.768;18.262;2022-08-03T04:48:18;17.60;99.90
59469;DHT22;45277;52.768;18.262;2022-08-03T04:49:50;17.70;99.90
59469;DHT22;45277;52.768;18.262;2022-08-03T04:51:24;17.80;99.90
59469;DHT22;45277;52.768;18.262;2022-08-03T04:53:01;18.00;99.90
59469;DHT22;45277;52.768;18.262;2022-08-03T04:54:43;18.10;99.90
59469;DHT22;45277;52.768;18.262;2022-08-03T04:56:14;18.30;99.90
59469;DHT22;45277;52.768;18.262;2022-08-03T04:57:45;18.50;99.90
59469;DHT22;45277;52.768;18.262;2022-08-03T04:59:17;18.70;99.90
59469;DHT22;45277;52.768;18.262;2022-08-03T05:00:49;18.80;99.90
59469;DHT22;45277;52.768;18.262;2022-08-03T05:02:22;18.80;99.90
59469;DHT22;45277;52.768;18.262;2022-08-03T05:03:53;18.80;99.90
59469;DHT22;45277;52.768;18.262;2022-08-03T05:05:25;18.90;99.90
59469;DHT22;45277;52.768;18.262;2022-08-03T05:06:57;18.90;99.90
59469;DHT22;45277;52.768;18.262;2022-08-03T05:08:28;19.00;99.90
59469;DHT22;45277;52.768;18.262;2022-08-03T05:10:00;19.10;99.90
59469;DHT22;45277;52.768;18.262;2022-08-03T05:11:31;19.30;99.90
59469;DHT22;45277;52.768;18.262;2022-08-03T05:13:03;19.30;99.90
59469;DHT22;45277;52.768;18.262;2022-08-03T05:14:35;19.40;99.90
59469;DHT22;45277;52.768;18.262;2022-08-03T05:16:10;19.40;99.90
59469;DHT22;45277;52.768;18.262;2022-08-03T05:17:43;19.50;99.90
59469;DHT22;45277;52.768;18.262;2022-08-03T05:19:17;19.50;99.90
59469;DHT22;45277;52.768;18.262;2022-08-03T05:20:48;19.50;99.90
59469;DHT22;45277;52.768;18.262;2022-08-03T05:22:21;19.60;99.90
59469;DHT22;45277;52.768;18.262;2022-08-03T05:23:53;19.50;99.90
59469;DHT22;45277;52.768;18.262;2022-08-03T05:25:27;19.60;99.90
59469;DHT22;45277;52.768;18.262;2022-08-03T05:27:00;19.60;99.90
59469;DHT22;45277;52.768;18.262;2022-08-03T05:28:33;19.50;99.90
59469;DHT22;45277;52.768;18.262;2022-08-03T05:30:07;19.50;99.90
59469;DHT22;45277;52.768;18.262;2022-08-03T05:31:39;19.60;99.90
59469;DHT22;45277;52.768;18.262;2022-08-03T05:33:10;19.50;99.90
59469;DHT22;45277;52.768;18.262;2022-08-03T05:34:42;19.70;99.90
59469;DHT22;45277;52.768;18.262;2022-08-03T05:36:15;19.80;99.90
59469;DHT22;45277;52.768;18.262;2022-08-03T05:37:46;19.90;99.90
59469;DHT22;45277;52.768;18.262;2022-08-03T05:39:18;20.00;99.90
59469;DHT22;45277;52.768;18.262;2022-08-03T05:40:49;20.10;99.90
59469;DHT22;45277;52.768;18.262;2022-08-03T05:42:22;20.20;99.90
59469;DHT22;45277;52.768;18.262;2022-08-03T05:44:00;20.20;99.90
59469;DHT22;45277;52.768;18.262;2022-08-03T05:45:33;20.30;99.90
59469;DHT22;45277;52.768;18.262;2022-08-03T05:47:05;20.50;99.90
59469;DHT22;45277;52.768;18.262;2022-08-03T05:48:36;20.70;99.90
59469;DHT22;45277;52.768;18.262;2022-08-03T05:50:11;20.80;99.90
59469;DHT22;45277;52.768;18.262;2022-08-03T05:51:44;20.90;99.90
59469;DHT22;45277;52.768;18.262;2022-08-03T05:53:17;20.90;99.90
59469;DHT22;45277;52.768;18.262;2022-08-03T05:54:49;21.00;99.90
59469;DHT22;45277;52.768;18.262;2022-08-03T05:56:24;21.20;99.90
59469;DHT22;45277;52.768;18.262;2022-08-03T05:57:56;21.30;99.90
59469;DHT22;45277;52.768;18.262;2022-08-03T05:59:28;21.30;99.90
59469;DHT22;45277;52.768;18.262;2022-08-03T06:01:00;21.40;99.90
59469;DHT22;45277;52.768;18.262;2022-08-03T06:02:32;21.30;99.90
59469;DHT22;45277;52.768;18.262;2022-08-03T06:04:05;21.30;99.90
59469;DHT22;45277;52.768;18.262;2022-08-03T06:05:36;21.30;99.90
59469;DHT22;45277;52.768;18.262;2022-08-03T06:07:09;21.20;99.90
59469;DHT22;45277;52.768;18.262;2022-08-03T06:08:41;21.20;99.90
59469;DHT22;45277;52.768;18.262;2022-08-03T06:10:13;21.20;99.90
59469;DHT22;45277;52.768;18.262;2022-08-03T06:11:45;21.10;99.90
59469;DHT22;45277;52.768;18.262;2022-08-03T06:13:18;21.10;99.90
59469;DHT22;45277;52.768;18.262;2022-08-03T06:14:51;21.00;99.90
59469;DHT22;45277;52.768;18.262;2022-08-03T06:16:22;21.00;99.90
59469;DHT22;45277;52.768;18.262;2022-08-03T06:17:54;21.10;99.90
59469;DHT22;45277;52.768;18.262;2022-08-03T06:19:27;21.10;99.90
59469;DHT22;45277;52.768;18.262;2022-08-03T06:20:59;21.10;99.90
59469;DHT22;45277;52.768;18.262;2022-08-03T06:22:31;21.30;99.90
59469;DHT22;45277;52.768;18.262;2022-08-03T06:24:02;21.40;99.90
59469;DHT22;45277;52.768;18.262;2022-08-03T06:25:34;21.70;99.90
59469;DHT22;45277;52.768;18.262;2022-08-03T06:27:06;21.80;99.90
59469;DHT22;45277;52.768;18.262;2022-08-03T06:28:39;22.10;99.90
59469;DHT22;45277;52.768;18.262;2022-08-03T06:30:12;22.20;99.90
59469;DHT22;45277;52.768;18.262;2022-08-03T06:31:45;22.50;99.90
59469;DHT22;45277;52.768;18.262;2022-08-03T06:33:16;22.70;99.90
59469;DHT22;45277;52.768;18.262;2022-08-03T06:34:48;22.80;99.90
59469;DHT22;45277;52.768;18.262;2022-08-03T06:36:19;22.90;99.90
59469;DHT22;45277;52.768;18.262;2022-08-03T06:37:51;23.00;99.90
59469;DHT22;45277;52.768;18.262;2022-08-03T06:39:23;22.90;99.90
59469;DHT22;45277;52.768;18.262;2022-08-03T06:40:55;22.90;99.90
59469;DHT22;45277;52.768;18.262;2022-08-03T06:42:26;22.90;99.90
59469;DHT22;45277;52.768;18.262;2022-08-03T06:43:58;23.10;99.90
59469;DHT22;45277;52.768;18.262;2022-08-03T06:45:29;23.40;99.90
59469;DHT22;45277;52.768;18.262;2022-08-03T06:47:02;23.50;99.90
59469;DHT22;45277;52.768;18.262;2022-08-03T06:48:36;23.60;99.90
59469;DHT22;45277;52.768;18.262;2022-08-03T06:50:08;23.80;99.90
59469;DHT22;45277;52.768;18.262;2022-08-03T06:51:43;23.80;99.90
59469;DHT22;45277;52.768;18.262;2022-08-03T06:53:14;24.00;99.90
59469;DHT22;45277;52.768;18.262;2022-08-03T06:54:48;24.00;99.90
59469;DHT22;45277;52.768;18.262;2022-08-03T06:56:22;24.20;99.40
59469;DHT22;45277;52.768;18.262;2022-08-03T06:57:56;24.30;99.90
59469;DHT22;45277;52.768;18.262;2022-08-03T06:59:27;24.50;99.90
59469;DHT22;45277;52.768;18.262;2022-08-03T07:01:00;24.80;96.40
59469;DHT22;45277;52.768;18.262;2022-08-03T07:02:31;25.10;92.10
59469;DHT22;45277;52.768;18.262;2022-08-03T07:04:06;25.40;87.70
59469;DHT22;45277;52.768;18.262;2022-08-03T07:05:43;25.50;85.30
59469;DHT22;45277;52.768;18.262;2022-08-03T07:07:25;25.30;90.50
59469;DHT22;45277;52.768;18.262;2022-08-03T07:08:58;25.10;90.20
59469;DHT22;45277;52.768;18.262;2022-08-03T07:10:29;25.40;90.70
59469;DHT22;45277;52.768;18.262;2022-08-03T07:12:01;25.40;90.80
59469;DHT22;45277;52.768;18.262;2022-08-03T07:13:34;25.30;89.30
59469;DHT22;45277;52.768;18.262;2022-08-03T07:15:06;25.20;91.20
59469;DHT22;45277;52.768;18.262;2022-08-03T07:16:39;25.40;89.80
59469;DHT22;45277;52.768;18.262;2022-08-03T07:18:11;25.60;85.20
59469;DHT22;45277;52.768;18.262;2022-08-03T07:19:44;25.70;78.70
59469;DHT22;45277;52.768;18.262;2022-08-03T07:21:16;25.70;76.20
59469;DHT22;45277;52.768;18.262;2022-08-03T07:22:48;25.50;82.60
59469;DHT22;45277;52.768;18.262;2022-08-03T07:24:19;25.70;78.40
59469;DHT22;45277;52.768;18.262;2022-08-03T07:25:52;25.50;74.30
59469;DHT22;45277;52.768;18.262;2022-08-03T07:27:24;25.50;77.90
59469;DHT22;45277;52.768;18.262;2022-08-03T07:28:58;25.60;74.20
59469;DHT22;45277;52.768;18.262;2022-08-03T07:30:33;25.50;78.70
59469;DHT22;45277;52.768;18.262;2022-08-03T07:32:05;25.60;77.00
59469;DHT22;45277;52.768;18.262;2022-08-03T07:33:37;25.60;79.10
59469;DHT22;45277;52.768;18.262;2022-08-03T07:35:11;25.70;80.40
59469;DHT22;45277;52.768;18.262;2022-08-03T07:36:42;25.70;75.20
59469;DHT22;45277;52.768;18.262;2022-08-03T07:38:14;25.80;76.60
59469;DHT22;45277;52.768;18.262;2022-08-03T07:39:49;26.00;72.00
59469;DHT22;45277;52.768;18.262;2022-08-03T07:41:20;26.10;56.80
59469;DHT22;45277;52.768;18.262;2022-08-03T07:42:53;26.20;63.70
59469;DHT22;45277;52.768;18.262;2022-08-03T07:44:24;26.10;67.20
59469;DHT22;45277;52.768;18.262;2022-08-03T07:45:56;26.10;61.60
59469;DHT22;45277;52.768;18.262;2022-08-03T07:47:29;26.10;57.90
59469;DHT22;45277;52.768;18.262;2022-08-03T07:49:01;26.30;49.00
59469;DHT22;45277;52.768;18.262;2022-08-03T07:50:34;26.40;52.40
59469;DHT22;45277;52.768;18.262;2022-08-03T07:52:08;26.50;46.50
59469;DHT22;45277;52.768;18.262;2022-08-03T07:53:58;26.20;53.20
59469;DHT22;45277;52.768;18.262;2022-08-03T07:55:32;26.30;53.00
59469;DHT22;45277;52.768;18.262;2022-08-03T07:57:05;26.20;58.00
59469;DHT22;45277;52.768;18.262;2022-08-03T07:58:40;26.30;59.60
59469;DHT22;45277;52.768;18.262;2022-08-03T08:00:18;26.60;55.20
59469;DHT22;45277;52.768;18.262;2022-08-03T08:01:50;26.60;61.80
59469;DHT22;45277;52.768;18.262;2022-08-03T08:03:23;26.60;63.70
59469;DHT22;45277;52.768;18.262;2022-08-03T08:04:59;26.70;62.60
59469;DHT22;45277;52.768;18.262;2022-08-03T08:06:31;26.90;55.80
59469;DHT22;45277;52.768;18.262;2022-08-03T08:08:04;27.00;47.50
59469;DHT22;45277;52.768;18.262;2022-08-03T08:09:36;26.90;36.30
59469;DHT22;45277;52.768;18.262;2022-08-03T08:11:09;27.10;34.40
59469;DHT22;45277;52.768;18.262;2022-08-03T08:12:41;27.30;34.10
59469;DHT22;45277;52.768;18.262;2022-08-03T08:14:12;27.40;35.60
59469;DHT22;45277;52.768;18.262;2022-08-03T08:15:43;27.70;38.00
59469;DHT22;45277;52.768;18.262;2022-08-03T08:17:23;28.00;35.00
59469;DHT22;45277;52.768;18.262;2022-08-03T08:19:01;28.20;29.00
59469;DHT22;45277;52.768;18.262;2022-08-03T08:20:34;28.10;31.30
59469;DHT22;45277;52.768;18.262;2022-08-03T08:22:09;28.10;33.30
59469;DHT22;45277;52.768;18.262;2022-08-03T08:23:42;28.30;37.40
59469;DHT22;45277;52.768;18.262;2022-08-03T08:25:15;28.40;30.00
59469;DHT22;45277;52.768;18.262;2022-08-03T08:26:48;28.60;28.00
59469;DHT22;45277;52.768;18.262;2022-08-03T08:28:21;28.60;28.30
59469;DHT22;45277;52.768;18.262;2022-08-03T08:30:04;28.10;29.20
59469;DHT22;45277;52.768;18.262;2022-08-03T08:31:41;28.10;32.60
59469;DHT22;45277;52.768;18.262;2022-08-03T08:33:13;28.10;35.90
59469;DHT22;45277;52.768;18.262;2022-08-03T08:34:45;28.00;31.00
59469;DHT22;45277;52.768;18.262;2022-08-03T08:36:19;28.30;32.90
59469;DHT22;45277;52.768;18.262;2022-08-03T08:37:53;28.20;27.80
59469;DHT22;45277;52.768;18.262;2022-08-03T08:39:27;28.10;29.70
59469;DHT22;45277;52.768;18.262;2022-08-03T08:40:59;28.20;29.50
59469;DHT22;45277;52.768;18.262;2022-08-03T08:42:32;28.10;28.40
59469;DHT22;45277;52.768;18.262;2022-08-03T08:44:04;27.90;27.50
59469;DHT22;45277;52.768;18.262;2022-08-03T08:45:40;28.10;29.10
59469;DHT22;45277;52.768;18.262;2022-08-03T08:47:13;28.20;28.90
59469;DHT22;45277;52.768;18.262;2022-08-03T08:48:48;28.50;28.20
59469;DHT22;45277;52.768;18.262;2022-08-03T08:50:22;28.80;32.10
59469;DHT22;45277;52.768;18.262;2022-08-03T08:51:55;29.10;29.00
59469;DHT22;45277;52.768;18.262;2022-08-03T08:53:36;29.10;28.80
59469;DHT22;45277;52.768;18.262;2022-08-03T08:55:13;29.40;25.70
59469;DHT22;45277;52.768;18.262;2022-08-03T08:56:49;29.50;25.80
59469;DHT22;45277;52.768;18.262;2022-08-03T08:58:22;29.50;23.50
59469;DHT22;45277;52.768;18.262;2022-08-03T09:00:03;29.70;22.90
59469;DHT22;45277;52.768;18.262;2022-08-03T09:01:35;29.50;22.50
59469;DHT22;45277;52.768;18.262;2022-08-03T09:03:07;29.60;20.70
59469;DHT22;45277;52.768;18.262;2022-08-03T09:04:38;29.30;21.60
59469;DHT22;45277;52.768;18.262;2022-08-03T09:06:11;29.50;22.20
59469;DHT22;45277;52.768;18.262;2022-08-03T09:07:45;29.60;21.20
59469;DHT22;45277;52.768;18.262;2022-08-03T09:09:25;29.60;22.50
59469;DHT22;45277;52.768;18.262;2022-08-03T09:11:05;29.70;21.40
59469;DHT22;45277;52.768;18.262;2022-08-03T09:12:49;29.70;21.20
59469;DHT22;45277;52.768;18.262;2022-08-03T09:14:21;29.80;20.30
59469;DHT22;45277;52.768;18.262;2022-08-03T09:16:10;29.70;21.80
59469;DHT22;45277;52.768;18.262;2022-08-03T09:17:44;29.30;19.40
59469;DHT22;45277;52.768;18.262;2022-08-03T09:19:15;29.30;19.10
59469;DHT22;45277;52.768;18.262;2022-08-03T09:20:47;29.00;18.20
59469;DHT22;45277;52.768;18.262;2022-08-03T09:22:18;29.10;18.80
59469;DHT22;45277;52.768;18.262;2022-08-03T09:23:57;29.30;18.50
59469;DHT22;45277;52.768;18.262;2022-08-03T09:25:34;29.60;19.10
59469;DHT22;45277;52.768;18.262;2022-08-03T09:27:11;30.00;18.50
59469;DHT22;45277;52.768;18.262;2022-08-03T09:28:43;30.10;18.40
59469;DHT22;45277;52.768;18.262;2022-08-03T09:30:18;29.90;19.40
59469;DHT22;45277;52.768;18.262;2022-08-03T09:31:59;29.80;19.00
59469;DHT22;45277;52.768;18.262;2022-08-03T09:33:32;29.70;20.10
59469;DHT22;45277;52.768;18.262;2022-08-03T09:35:03;29.70;18.80
59469;DHT22;45277;52.768;18.262;2022-08-03T09:36:36;29.70;18.30
59469;DHT22;45277;52.768;18.262;2022-08-03T09:38:20;29.70;17.70
59469;DHT22;45277;52.768;18.262;2022-08-03T09:39:59;29.90;19.20
59469;DHT22;45277;52.768;18.262;2022-08-03T09:41:31;29.90;20.30
59469;DHT22;45277;52.768;18.262;2022-08-03T09:43:05;30.10;20.70
59469;DHT22;45277;52.768;18.262;2022-08-03T09:44:43;30.10;20.50
59469;DHT22;45277;52.768;18.262;2022-08-03T09:46:17;30.50;18.30
59469;DHT22;45277;52.768;18.262;2022-08-03T09:47:49;31.00;19.00
59469;DHT22;45277;52.768;18.262;2022-08-03T09:49:21;31.10;17.10
59469;DHT22;45277;52.768;18.262;2022-08-03T09:50:58;31.10;16.70
59469;DHT22;45277;52.768;18.262;2022-08-03T09:52:39;31.10;16.80
59469;DHT22;45277;52.768;18.262;2022-08-03T09:54:11;31.40;17.10
59469;DHT22;45277;52.768;18.262;2022-08-03T09:55:57;31.50;17.20